sensor_id;sensor_type;location;lat;lon;timestamp;pressure;altitude;pressure_sealevel;temperature;humidity
75409;BME280;63979;55.644;37.734;2024-02-23T00:03:43;100532.94;;;-1.58;80.21
75409;BME280;63979;55.644;37.734;2024-02-23T00:08:44;100532.09;;;-1.63;80.53
75409;BME280;63979;55.644;37.734;2024-02-23T00:13:45;100525.13;;;-1.61;80.24
75409;BME280;63979;55.644;37.734;2024-02-23T00:18:46;100535.59;;;-1.61;80.29
75409;BME280;63979;55.644;37.734;2024-02-23T00:23:47;100541.56;;;-1.46;79.97
75409;BME280;63979;55.644;37.734;2024-02-23T00:28:48;100525.91;;;-1.51;79.73
75409;BME280;63979;55.644;37.734;2024-02-23T00:33:49;100529.44;;;-1.58;79.79
75409;BME280;63979;55.644;37.734;2024-02-23T00:38:50;100527.66;;;-1.51;79.72
75409;BME280;63979;55.644;37.734;2024-02-23T00:43:51;100529.41;;;-1.53;79.73
75409;BME280;63979;55.644;37.734;2024-02-23T00:48:52;100539.91;;;-1.57;79.67
75409;BME280;63979;55.644;37.734;2024-02-23T00:53:52;100534.69;;;-1.58;80.23
75409;BME280;63979;55.644;37.734;2024-02-23T00:58:53;100535.47;;;-1.48;80.04
75409;BME280;63979;55.644;37.734;2024-02-23T01:03:54;100528.50;;;-1.51;80.42
75409;BME280;63979;55.644;37.734;2024-02-23T01:08:55;100543.41;;;-1.56;80.38
75409;BME280;63979;55.644;37.734;2024-02-23T01:13:56;100551.13;;;-1.38;80.30
75409;BME280;63979;55.644;37.734;2024-02-23T01:18:57;100542.34;;;-1.34;79.72
75409;BME280;63979;55.644;37.734;2024-02-23T01:23:58;100537.09;;;-1.32;79.62
75409;BME280;63979;55.644;37.734;2024-02-23T01:29:01;100537.13;;;-1.34;79.63
75409;BME280;63979;55.644;37.734;2024-02-23T01:34:02;100530.13;;;-1.35;79.34
75409;BME280;63979;55.644;37.734;2024-02-23T01:39:02;100543.09;;;-1.21;78.80
75409;BME280;63979;55.644;37.734;2024-02-23T01:44:04;100544.84;;;-1.20;79.14
75409;BME280;63979;55.644;37.734;2024-02-23T01:49:07;100507.44;;;-1.34;78.31
75409;BME280;63979;55.644;37.734;2024-02-23T01:54:08;100503.91;;;-1.30;77.73
75409;BME280;63979;55.644;37.734;2024-02-23T01:59:10;100544.78;;;-1.15;77.50
75409;BME280;63979;55.644;37.734;2024-02-23T02:04:11;100538.66;;;-1.13;77.78
75409;BME280;63979;55.644;37.734;2024-02-23T02:09:12;100547.41;;;-1.17;77.91
75409;BME280;63979;55.644;37.734;2024-02-23T02:14:14;100540.50;;;-1.22;77.91
75409;BME280;63979;55.644;37.734;2024-02-23T02:19:15;100543.06;;;-1.18;77.82
75409;BME280;63979;55.644;37.734;2024-02-23T02:24:16;100542.13;;;-1.12;77.51
75409;BME280;63979;55.644;37.734;2024-02-23T02:29:17;100553.59;;;-1.22;78.08
75409;BME280;63979;55.644;37.734;2024-02-23T02:34:18;100544.91;;;-1.26;77.74
75409;BME280;63979;55.644;37.734;2024-02-23T02:39:18;100545.78;;;-1.27;78.60
75409;BME280;63979;55.644;37.734;2024-02-23T02:44:19;100549.22;;;-1.22;77.80
75409;BME280;63979;55.644;37.734;2024-02-23T02:49:20;100547.47;;;-1.23;77.92
75409;BME280;63979;55.644;37.734;2024-02-23T02:54:22;100544.03;;;-1.27;78.19
75409;BME280;63979;55.644;37.734;2024-02-23T02:59:23;100549.25;;;-1.27;77.87
75409;BME280;63979;55.644;37.734;2024-02-23T03:04:24;100547.50;;;-1.26;78.28
75409;BME280;63979;55.644;37.734;2024-02-23T03:09:25;100549.34;;;-1.36;78.50
75409;BME280;63979;55.644;37.734;2024-02-23T03:14:26;100549.19;;;-1.20;78.14
75409;BME280;63979;55.644;37.734;2024-02-23T03:19:27;100561.50;;;-1.30;78.00
75409;BME280;63979;55.644;37.734;2024-02-23T03:24:28;100567.47;;;-1.13;78.47
75409;BME280;63979;55.644;37.734;2024-02-23T03:29:28;100572.69;;;-1.13;78.91
75409;BME280;63979;55.644;37.734;2024-02-23T03:34:29;100582.25;;;-1.09;77.98
75409;BME280;63979;55.644;37.734;2024-02-23T03:39:30;100575.22;;;-1.01;77.62
75409;BME280;63979;55.644;37.734;2024-02-23T03:44:33;100580.50;;;-1.08;77.65
75409;BME280;63979;55.644;37.734;2024-02-23T03:49:34;100576.09;;;-1.05;78.22
75409;BME280;63979;55.644;37.734;2024-02-23T03:54:34;100566.75;;;-1.30;78.49
75409;BME280;63979;55.644;37.734;2024-02-23T03:59:36;100570.88;;;-1.06;78.35
75409;BME280;63979;55.644;37.734;2024-02-23T04:04:38;100578.78;;;-1.11;77.91
75409;BME280;63979;55.644;37.734;2024-02-23T04:09:38;100572.72;;;-1.16;78.60
75409;BME280;63979;55.644;37.734;2024-02-23T04:14:39;100592.75;;;-1.10;78.49
75409;BME280;63979;55.644;37.734;2024-02-23T04:19:41;100574.38;;;-1.06;78.58
75409;BME280;63979;55.644;37.734;2024-02-23T04:24:42;100569.19;;;-1.10;79.06
75409;BME280;63979;55.644;37.734;2024-02-23T04:29:43;100584.00;;;-1.08;79.24
75409;BME280;63979;55.644;37.734;2024-02-23T04:34:44;100596.19;;;-1.01;78.59
75409;BME280;63979;55.644;37.734;2024-02-23T04:39:45;100580.50;;;-1.04;78.56
75409;BME280;63979;55.644;37.734;2024-02-23T04:44:45;100593.59;;;-1.04;79.33
75409;BME280;63979;55.644;37.734;2024-02-23T04:49:46;100600.50;;;-0.97;79.37
75409;BME280;63979;55.644;37.734;2024-02-23T04:54:47;100600.50;;;-0.97;79.28
75409;BME280;63979;55.644;37.734;2024-02-23T04:59:48;100589.03;;;-0.86;78.86
75409;BME280;63979;55.644;37.734;2024-02-23T05:04:49;100611.75;;;-0.85;78.71
75409;BME280;63979;55.644;37.734;2024-02-23T05:09:50;100606.44;;;-0.78;78.86
75409;BME280;63979;55.644;37.734;2024-02-23T05:14:50;100613.41;;;-0.78;78.92
75409;BME280;63979;55.644;37.734;2024-02-23T05:19:51;100610.81;;;-0.78;78.76
75409;BME280;63979;55.644;37.734;2024-02-23T05:24:52;100612.53;;;-0.76;79.03
75409;BME280;63979;55.644;37.734;2024-02-23T05:29:53;100616.81;;;-0.66;78.56
75409;BME280;63979;55.644;37.734;2024-02-23T05:34:54;100610.75;;;-0.75;79.54
75409;BME280;63979;55.644;37.734;2024-02-23T05:39:57;100638.66;;;-0.65;79.17
75409;BME280;63979;55.644;37.734;2024-02-23T05:45:00;100643.03;;;-0.70;78.97
75409;BME280;63979;55.644;37.734;2024-02-23T05:50:02;100646.38;;;-0.53;78.27
75409;BME280;63979;55.644;37.734;2024-02-23T05:55:04;100631.44;;;-0.46;77.72
75409;BME280;63979;55.644;37.734;2024-02-23T06:00:06;100625.19;;;-0.33;77.16
75409;BME280;63979;55.644;37.734;2024-02-23T06:05:08;100627.81;;;-0.36;76.86
75409;BME280;63979;55.644;37.734;2024-02-23T06:10:09;100628.69;;;-0.33;77.57
75409;BME280;63979;55.644;37.734;2024-02-23T06:15:11;100650.56;;;-0.34;76.53
75409;BME280;63979;55.644;37.734;2024-02-23T06:20:12;100654.69;;;-0.14;76.21
75409;BME280;63979;55.644;37.734;2024-02-23T06:25:13;100652.13;;;-0.17;76.23
75409;BME280;63979;55.644;37.734;2024-02-23T06:30:14;100650.31;;;-0.12;76.07
75409;BME280;63979;55.644;37.734;2024-02-23T06:35:15;100660.09;;;-0.26;76.30
75409;BME280;63979;55.644;37.734;2024-02-23T06:40:16;100659.94;;;-0.14;76.30
75409;BME280;63979;55.644;37.734;2024-02-23T06:45:17;100658.91;;;0.01;75.44
75409;BME280;63979;55.644;37.734;2024-02-23T06:50:18;100665.97;;;-0.06;75.12
75409;BME280;63979;55.644;37.734;2024-02-23T06:55:19;100666.13;;;-0.20;75.52
75409;BME280;63979;55.644;37.734;2024-02-23T07:00:21;100642.44;;;-0.14;75.25
75409;BME280;63979;55.644;37.734;2024-02-23T07:05:22;100672.97;;;-0.07;75.53
75409;BME280;63979;55.644;37.734;2024-02-23T07:10:41;100679.66;;;0.19;74.44
75409;BME280;63979;55.644;37.734;2024-02-23T07:15:42;100675.63;;;-0.10;74.63
75409;BME280;63979;55.644;37.734;2024-02-23T07:20:43;100681.94;;;-0.26;75.22
75409;BME280;63979;55.644;37.734;2024-02-23T07:25:44;100678.22;;;-0.08;74.90
75409;BME280;63979;55.644;37.734;2024-02-23T07:30:45;100679.09;;;-0.06;74.18
75409;BME280;63979;55.644;37.734;2024-02-23T07:35:47;100683.25;;;0.13;73.95
75409;BME280;63979;55.644;37.734;2024-02-23T07:40:48;100645.00;;;-0.09;73.52
75409;BME280;63979;55.644;37.734;2024-02-23T07:45:48;100696.13;;;0.31;73.06
75409;BME280;63979;55.644;37.734;2024-02-23T07:50:49;100661.34;;;0.14;73.53
75409;BME280;63979;55.644;37.734;2024-02-23T07:55:50;100655.16;;;0.20;72.76
75409;BME280;63979;55.644;37.734;2024-02-23T08:00:51;100691.66;;;0.41;72.72
75409;BME280;63979;55.644;37.734;2024-02-23T08:05:52;100686.44;;;0.38;72.47
75409;BME280;63979;55.644;37.734;2024-02-23T08:10:54;100696.19;;;0.25;73.86
75409;BME280;63979;55.644;37.734;2024-02-23T08:15:55;100703.97;;;0.36;72.80
75409;BME280;63979;55.644;37.734;2024-02-23T08:20:58;100705.78;;;0.28;73.08
75409;BME280;63979;55.644;37.734;2024-02-23T08:26:03;100706.91;;;0.10;74.18
75409;BME280;63979;55.644;37.734;2024-02-23T08:31:03;100708.19;;;0.48;73.38
75409;BME280;63979;55.644;37.734;2024-02-23T08:36:05;100709.81;;;0.55;72.68
75409;BME280;63979;55.644;37.734;2024-02-23T08:41:06;100706.84;;;0.81;71.47
75409;BME280;63979;55.644;37.734;2024-02-23T08:46:09;100714.56;;;0.91;70.81
75409;BME280;63979;55.644;37.734;2024-02-23T08:51:10;100717.91;;;1.04;70.61
75409;BME280;63979;55.644;37.734;2024-02-23T08:56:12;100697.38;;;0.71;70.88
75409;BME280;63979;55.644;37.734;2024-02-23T09:01:13;100714.38;;;1.04;70.67
75409;BME280;63979;55.644;37.734;2024-02-23T09:06:14;100727.59;;;0.99;71.09
75409;BME280;63979;55.644;37.734;2024-02-23T09:11:15;100733.41;;;1.19;69.99
75409;BME280;63979;55.644;37.734;2024-02-23T09:16:16;100735.44;;;1.01;71.10
75409;BME280;63979;55.644;37.734;2024-02-23T09:21:18;100726.25;;;1.29;70.74
75409;BME280;63979;55.644;37.734;2024-02-23T09:26:19;100736.63;;;1.37;69.94
75409;BME280;63979;55.644;37.734;2024-02-23T09:31:20;100725.97;;;1.46;69.92
75409;BME280;63979;55.644;37.734;2024-02-23T09:36:21;100722.66;;;1.33;70.25
75409;BME280;63979;55.644;37.734;2024-02-23T09:41:23;100739.16;;;1.44;70.08
75409;BME280;63979;55.644;37.734;2024-02-23T09:46:25;100742.47;;;1.55;70.32
75409;BME280;63979;55.644;37.734;2024-02-23T09:51:27;100706.50;;;1.56;69.62
75409;BME280;63979;55.644;37.734;2024-02-23T09:56:30;100736.03;;;1.72;69.66
75409;BME280;63979;55.644;37.734;2024-02-23T10:01:31;100727.19;;;1.77;70.03
75409;BME280;63979;55.644;37.734;2024-02-23T10:06:33;100730.63;;;1.81;69.75
75409;BME280;63979;55.644;37.734;2024-02-23T10:11:34;100746.31;;;1.87;69.63
75409;BME280;63979;55.644;37.734;2024-02-23T10:16:36;100735.91;;;1.81;69.86
75409;BME280;63979;55.644;37.734;2024-02-23T10:21:37;100736.59;;;1.89;69.87
75409;BME280;63979;55.644;37.734;2024-02-23T10:26:39;100738.94;;;2.04;69.78
75409;BME280;63979;55.644;37.734;2024-02-23T10:31:40;100748.50;;;2.11;69.61
75409;BME280;63979;55.644;37.734;2024-02-23T10:36:43;100745.22;;;2.43;69.00
75409;BME280;63979;55.644;37.734;2024-02-23T10:42:00;100747.63;;;2.54;68.10
75409;BME280;63979;55.644;37.734;2024-02-23T10:47:04;100747.16;;;2.34;69.19
75409;BME280;63979;55.644;37.734;2024-02-23T10:52:05;100749.63;;;2.43;69.54
75409;BME280;63979;55.644;37.734;2024-02-23T10:57:08;100757.81;;;2.28;69.58
75409;BME280;63979;55.644;37.734;2024-02-23T11:02:10;100771.81;;;2.30;69.93
75409;BME280;63979;55.644;37.734;2024-02-23T11:07:14;100763.75;;;2.37;69.91
75409;BME280;63979;55.644;37.734;2024-02-23T11:12:25;100740.09;;;2.36;70.11
75409;BME280;63979;55.644;37.734;2024-02-23T11:17:29;100745.53;;;2.27;70.66
75409;BME280;63979;55.644;37.734;2024-02-23T11:22:31;100775.81;;;2.50;70.41
75409;BME280;63979;55.644;37.734;2024-02-23T11:27:33;100787.38;;;2.42;71.12
75409;BME280;63979;55.644;37.734;2024-02-23T11:32:39;100780.09;;;2.56;70.77
75409;BME280;63979;55.644;37.734;2024-02-23T11:37:55;100790.91;;;2.41;71.21
75409;BME280;63979;55.644;37.734;2024-02-23T11:43:04;100784.03;;;2.34;72.20
75409;BME280;63979;55.644;37.734;2024-02-23T11:48:05;100787.38;;;2.42;72.28
75409;BME280;63979;55.644;37.734;2024-02-23T11:53:07;100771.94;;;2.67;71.31
75409;BME280;63979;55.644;37.734;2024-02-23T11:58:09;100785.22;;;2.62;71.38
75409;BME280;63979;55.644;37.734;2024-02-23T12:03:10;100781.81;;;2.57;71.58
75409;BME280;63979;55.644;37.734;2024-02-23T12:08:11;100787.38;;;2.42;72.19
75409;BME280;63979;55.644;37.734;2024-02-23T12:13:12;100780.31;;;2.45;72.81
75409;BME280;63979;55.644;37.734;2024-02-23T12:18:13;100780.16;;;2.53;72.38
75409;BME280;63979;55.644;37.734;2024-02-23T12:23:15;100790.78;;;2.48;72.74
75409;BME280;63979;55.644;37.734;2024-02-23T12:28:18;100750.72;;;2.31;72.55
75409;BME280;63979;55.644;37.734;2024-02-23T12:33:20;100772.78;;;2.26;73.31
75409;BME280;63979;55.644;37.734;2024-02-23T12:38:21;100795.09;;;2.05;74.39
75409;BME280;63979;55.644;37.734;2024-02-23T12:43:22;100797.16;;;2.35;74.06
75409;BME280;63979;55.644;37.734;2024-02-23T12:48:24;100810.25;;;2.40;73.90
75409;BME280;63979;55.644;37.734;2024-02-23T12:53:37;100803.72;;;2.14;74.36
75409;BME280;63979;55.644;37.734;2024-02-23T12:58:39;100805.19;;;2.29;74.74
75409;BME280;63979;55.644;37.734;2024-02-23T13:03:40;100809.09;;;2.07;75.31
75409;BME280;63979;55.644;37.734;2024-02-23T13:08:42;100814.91;;;2.27;74.57
75409;BME280;63979;55.644;37.734;2024-02-23T13:13:43;100815.88;;;2.22;74.89
75409;BME280;63979;55.644;37.734;2024-02-23T13:18:44;100836.91;;;2.23;75.33
75409;BME280;63979;55.644;37.734;2024-02-23T13:23:47;100793.47;;;1.98;75.72
75409;BME280;63979;55.644;37.734;2024-02-23T13:28:48;100824.56;;;2.27;75.04
75409;BME280;63979;55.644;37.734;2024-02-23T13:33:49;100812.34;;;2.23;75.53
75409;BME280;63979;55.644;37.734;2024-02-23T13:38:50;100809.03;;;2.13;75.36
75409;BME280;63979;55.644;37.734;2024-02-23T13:43:51;100829.03;;;2.23;75.48
75409;BME280;63979;55.644;37.734;2024-02-23T13:49:03;100824.78;;;2.14;75.61
75409;BME280;63979;55.644;37.734;2024-02-23T13:54:05;100825.59;;;2.18;75.87
75409;BME280;63979;55.644;37.734;2024-02-23T13:59:06;100832.88;;;2.02;76.52
75409;BME280;63979;55.644;37.734;2024-02-23T14:04:07;100825.03;;;2.01;76.03
75409;BME280;63979;55.644;37.734;2024-02-23T14:09:10;100830.19;;;2.05;76.31
75409;BME280;63979;55.644;37.734;2024-02-23T14:14:11;100833.66;;;2.10;75.66
75409;BME280;63979;55.644;37.734;2024-02-23T14:19:13;100833.06;;;1.93;76.88
75409;BME280;63979;55.644;37.734;2024-02-23T14:24:14;100830.22;;;2.04;76.13
75409;BME280;63979;55.644;37.734;2024-02-23T14:29:15;100829.47;;;1.97;76.31
75409;BME280;63979;55.644;37.734;2024-02-23T14:34:18;100842.28;;;2.18;76.20
75409;BME280;63979;55.644;37.734;2024-02-23T14:39:20;100844.81;;;2.23;75.63
75409;BME280;63979;55.644;37.734;2024-02-23T14:44:21;100865.25;;;2.10;75.87
75409;BME280;63979;55.644;37.734;2024-02-23T14:49:22;100854.53;;;2.19;75.84
75409;BME280;63979;55.644;37.734;2024-02-23T14:54:23;100856.28;;;2.21;75.82
75409;BME280;63979;55.644;37.734;2024-02-23T14:59:24;100851.09;;;2.16;75.74
75409;BME280;63979;55.644;37.734;2024-02-23T15:04:25;100852.97;;;2.09;75.92
75409;BME280;63979;55.644;37.734;2024-02-23T15:09:27;100860.75;;;2.17;75.91
75409;BME280;63979;55.644;37.734;2024-02-23T15:14:28;100847.72;;;2.08;75.89
75409;BME280;63979;55.644;37.734;2024-02-23T15:19:29;100874.13;;;2.03;76.25
75409;BME280;63979;55.644;37.734;2024-02-23T15:24:30;100877.72;;;1.99;76.07
75409;BME280;63979;55.644;37.734;2024-02-23T15:29:30;100880.81;;;2.24;75.74
75409;BME280;63979;55.644;37.734;2024-02-23T15:34:31;100867.84;;;2.12;75.84
75409;BME280;63979;55.644;37.734;2024-02-23T15:39:32;100886.41;;;2.04;76.21
75409;BME280;63979;55.644;37.734;2024-02-23T15:44:33;100881.13;;;2.04;76.35
75409;BME280;63979;55.644;37.734;2024-02-23T15:49:34;100887.94;;;2.17;76.25
75409;BME280;63979;55.644;37.734;2024-02-23T15:54:35;100880.22;;;2.07;76.33
75409;BME280;63979;55.644;37.734;2024-02-23T15:59:36;100892.50;;;2.06;76.17
75409;BME280;63979;55.644;37.734;2024-02-23T16:04:37;100891.19;;;2.32;75.58
75409;BME280;63979;55.644;37.734;2024-02-23T16:09:38;100889.63;;;2.22;76.38
75409;BME280;63979;55.644;37.734;2024-02-23T16:14:39;100903.63;;;2.24;76.08
75409;BME280;63979;55.644;37.734;2024-02-23T16:19:41;100896.88;;;2.09;76.97
75409;BME280;63979;55.644;37.734;2024-02-23T16:24:43;100884.38;;;2.20;76.85
75409;BME280;63979;55.644;37.734;2024-02-23T16:29:45;100867.78;;;2.16;76.60
75409;BME280;63979;55.644;37.734;2024-02-23T16:34:46;100870.53;;;2.07;77.03
75409;BME280;63979;55.644;37.734;2024-02-23T16:39:47;100900.13;;;2.23;77.17
75409;BME280;63979;55.644;37.734;2024-02-23T16:44:48;100891.41;;;2.21;77.07
75409;BME280;63979;55.644;37.734;2024-02-23T16:49:49;100898.31;;;2.27;77.40
75409;BME280;63979;55.644;37.734;2024-02-23T16:54:52;100908.75;;;2.33;77.38
75409;BME280;63979;55.644;37.734;2024-02-23T16:59:53;100911.25;;;2.39;77.33
75409;BME280;63979;55.644;37.734;2024-02-23T17:04:54;100907.34;;;2.61;76.79
75409;BME280;63979;55.644;37.734;2024-02-23T17:09:56;100919.94;;;2.45;77.13
75409;BME280;63979;55.644;37.734;2024-02-23T17:14:58;100922.25;;;2.62;76.53
75409;BME280;63979;55.644;37.734;2024-02-23T17:19:59;100919.00;;;2.49;76.63
75409;BME280;63979;55.644;37.734;2024-02-23T17:25:00;100921.59;;;2.51;76.84
75409;BME280;63979;55.644;37.734;2024-02-23T17:30:01;100920.75;;;2.49;77.24
75409;BME280;63979;55.644;37.734;2024-02-23T17:35:04;100929.16;;;2.69;76.23
75409;BME280;63979;55.644;37.734;2024-02-23T17:40:06;100909.38;;;2.47;76.17
75409;BME280;63979;55.644;37.734;2024-02-23T17:45:08;100921.56;;;2.53;76.58
75409;BME280;63979;55.644;37.734;2024-02-23T17:50:12;100921.44;;;2.60;76.28
75409;BME280;63979;55.644;37.734;2024-02-23T17:55:13;100920.69;;;2.54;76.47
75409;BME280;63979;55.644;37.734;2024-02-23T18:00:15;100942.94;;;2.36;76.92
75409;BME280;63979;55.644;37.734;2024-02-23T18:05:16;100933.19;;;2.41;76.16
75409;BME280;63979;55.644;37.734;2024-02-23T18:10:16;100933.81;;;2.55;76.27
75409;BME280;63979;55.644;37.734;2024-02-23T18:15:19;100945.56;;;2.36;76.69
75409;BME280;63979;55.644;37.734;2024-02-23T18:20:20;100938.44;;;2.41;76.16
75409;BME280;63979;55.644;37.734;2024-02-23T18:25:21;100947.25;;;2.40;76.39
75409;BME280;63979;55.644;37.734;2024-02-23T18:30:22;100951.91;;;2.24;76.97
75409;BME280;63979;55.644;37.734;2024-02-23T18:35:23;100951.00;;;2.27;77.02
75409;BME280;63979;55.644;37.734;2024-02-23T18:40:24;100956.88;;;2.41;76.14
75409;BME280;63979;55.644;37.734;2024-02-23T18:45:25;100959.06;;;2.17;76.72
75409;BME280;63979;55.644;37.734;2024-02-23T18:50:26;100952.72;;;2.28;76.09
75409;BME280;63979;55.644;37.734;2024-02-23T18:55:27;100950.03;;;2.31;75.73
75409;BME280;63979;55.644;37.734;2024-02-23T19:00:28;100965.81;;;2.32;76.02
75409;BME280;63979;55.644;37.734;2024-02-23T19:05:29;100961.19;;;2.48;75.66
75409;BME280;63979;55.644;37.734;2024-02-23T19:10:33;100966.13;;;2.14;76.08
75409;BME280;63979;55.644;37.734;2024-02-23T19:15:34;100970.22;;;2.32;75.89
75409;BME280;63979;55.644;37.734;2024-02-23T19:20:37;100965.72;;;2.38;75.27
75409;BME280;63979;55.644;37.734;2024-02-23T19:25:38;100970.19;;;2.33;75.39
75409;BME280;63979;55.644;37.734;2024-02-23T19:30:40;100958.06;;;2.25;75.47
75409;BME280;63979;55.644;37.734;2024-02-23T19:35:43;100966.63;;;2.36;74.98
75409;BME280;63979;55.644;37.734;2024-02-23T19:40:45;100967.00;;;2.14;76.37
75409;BME280;63979;55.644;37.734;2024-02-23T19:45:48;100980.91;;;2.23;75.57
75409;BME280;63979;55.644;37.734;2024-02-23T19:50:51;101005.78;;;2.03;76.15
75409;BME280;63979;55.644;37.734;2024-02-23T19:55:52;100990.66;;;2.17;75.83
75409;BME280;63979;55.644;37.734;2024-02-23T20:00:53;100995.72;;;2.30;75.21
75409;BME280;63979;55.644;37.734;2024-02-23T20:05:54;101008.19;;;2.20;74.81
75409;BME280;63979;55.644;37.734;2024-02-23T20:10:55;101003.00;;;2.14;74.99
75409;BME280;63979;55.644;37.734;2024-02-23T20:15:56;101013.06;;;1.86;75.75
75409;BME280;63979;55.644;37.734;2024-02-23T20:20:57;101006.56;;;2.11;75.35
75409;BME280;63979;55.644;37.734;2024-02-23T20:25:58;101001.75;;;2.36;74.92
75409;BME280;63979;55.644;37.734;2024-02-23T20:30:59;101006.34;;;2.24;75.16
75409;BME280;63979;55.644;37.734;2024-02-23T20:36:06;101005.03;;;1.95;75.92
75409;BME280;63979;55.644;37.734;2024-02-23T20:41:07;101026.38;;;1.75;76.43
75409;BME280;63979;55.644;37.734;2024-02-23T20:46:09;101037.00;;;1.66;76.27
75409;BME280;63979;55.644;37.734;2024-02-23T20:51:09;101039.63;;;1.66;76.75
75409;BME280;63979;55.644;37.734;2024-02-23T20:56:10;101025.47;;;1.78;76.36
75409;BME280;63979;55.644;37.734;2024-02-23T21:01:11;101022.00;;;1.71;76.14
75409;BME280;63979;55.644;37.734;2024-02-23T21:06:12;101028.00;;;1.84;75.91
75409;BME280;63979;55.644;37.734;2024-02-23T21:11:13;101020.25;;;1.75;75.65
75409;BME280;63979;55.644;37.734;2024-02-23T21:16:15;101030.69;;;1.81;75.58
75409;BME280;63979;55.644;37.734;2024-02-23T21:21:16;101035.00;;;1.85;75.74
75409;BME280;63979;55.644;37.734;2024-02-23T21:26:20;101039.28;;;1.92;75.33
75409;BME280;63979;55.644;37.734;2024-02-23T21:31:22;101037.78;;;1.76;75.57
75409;BME280;63979;55.644;37.734;2024-02-23T21:36:23;101036.56;;;1.98;75.56
75409;BME280;63979;55.644;37.734;2024-02-23T21:41:24;101033.91;;;2.01;75.30
75409;BME280;63979;55.644;37.734;2024-02-23T21:46:25;101026.38;;;1.72;75.87
75409;BME280;63979;55.644;37.734;2024-02-23T21:51:26;101073.16;;;1.50;76.65
75409;BME280;63979;55.644;37.734;2024-02-23T21:56:27;101053.91;;;1.48;76.54
75409;BME280;63979;55.644;37.734;2024-02-23T22:01:28;101073.09;;;1.56;76.29
75409;BME280;63979;55.644;37.734;2024-02-23T22:06:31;101081.91;;;1.52;76.14
75409;BME280;63979;55.644;37.734;2024-02-23T22:11:32;101076.06;;;1.24;76.68
75409;BME280;63979;55.644;37.734;2024-02-23T22:16:33;101089.88;;;1.46;76.38
75409;BME280;63979;55.644;37.734;2024-02-23T22:21:33;101097.84;;;1.37;75.98
75409;BME280;63979;55.644;37.734;2024-02-23T22:26:34;101106.53;;;1.45;76.43
75409;BME280;63979;55.644;37.734;2024-02-23T22:31:46;101097.00;;;1.34;76.23
75409;BME280;63979;55.644;37.734;2024-02-23T22:36:47;101112.81;;;1.32;76.58
75409;BME280;63979;55.644;37.734;2024-02-23T22:41:48;101116.25;;;1.37;75.77
75409;BME280;63979;55.644;37.734;2024-02-23T22:46:49;101114.53;;;1.33;75.25
75409;BME280;63979;55.644;37.734;2024-02-23T22:51:49;101131.44;;;1.11;76.36
75409;BME280;63979;55.644;37.734;2024-02-23T22:56:50;101139.97;;;1.34;75.99
75409;BME280;63979;55.644;37.734;2024-02-23T23:01:51;101140.91;;;1.25;75.58
75409;BME280;63979;55.644;37.734;2024-02-23T23:06:55;101136.59;;;1.20;75.94
75409;BME280;63979;55.644;37.734;2024-02-23T23:11:56;101148.00;;;1.19;75.80
75409;BME280;63979;55.644;37.734;2024-02-23T23:16:57;101150.81;;;0.94;76.23
75409;BME280;63979;55.644;37.734;2024-02-23T23:21:58;101132.16;;;1.25;75.95
75409;BME280;63979;55.644;37.734;2024-02-23T23:26:59;101153.41;;;0.99;76.26
75409;BME280;63979;55.644;37.734;2024-02-23T23:31:59;101141.03;;;1.13;76.02
75409;BME280;63979;55.644;37.734;2024-02-23T23:37:00;101144.53;;;1.15;75.80
75409;BME280;63979;55.644;37.734;2024-02-23T23:42:01;101157.78;;;1.02;76.27
75409;BME280;63979;55.644;37.734;2024-02-23T23:47:02;101152.50;;;1.03;75.99
75409;BME280;63979;55.644;37.734;2024-02-23T23:52:03;101145.50;;;1.07;75.80
75409;BME280;63979;55.644;37.734;2024-02-23T23:57:04;101138.41;;;1.13;75.29
